Time,TemperatureF,DewpointF,PressureIn,WindDirection,WindDirectionDegrees,WindSpeedMPH,WindSpeedGustMPH,Humidity,HourlyPrecipIn,Conditions,Clouds,dailyrainin,SolarRadiationWatts/m^2,SoftwareType,DateUTC
2013-07-14 00:22:00,52.0,44.0,-100.00,WSW,238,0.0,5.0,75,0.00,,,0.00,1.000000,,2013-07-14 08:22:00,
2013-07-14 00:32:00,52.0,44.0,-100.00,WSW,238,0.0,5.0,75,0.00,,,0.00,1.000000,,2013-07-14 08:32:00,
2013-07-14 00:42:00,52.0,44.0,-100.00,WSW,238,0.0,5.0,75,0.00,,,0.00,1.000000,,2013-07-14 08:42:00,
2013-07-14 00:53:00,52.0,44.0,-100.00,WSW,238,0.0,5.0,75,0.00,,,0.00,1.000000,,2013-07-14 08:53:00,
2013-07-14 01:22:00,47.0,41.0,-100.00,South,190,0.0,3.0,80,0.00,,,0.00,0.000000,,2013-07-14 09:22:00,
2013-07-14 01:32:00,47.0,41.0,-100.00,South,190,0.0,3.0,80,0.00,,,0.00,0.000000,,2013-07-14 09:32:00,
2013-07-14 01:42:00,47.0,41.0,-100.00,South,190,0.0,3.0,80,0.00,,,0.00,0.000000,,2013-07-14 09:42:00,
2013-07-14 01:52:00,47.0,41.0,-100.00,South,190,0.0,3.0,80,0.00,,,0.00,0.000000,,2013-07-14 09:52:00,
2013-07-14 02:21:00,44.0,39.0,-100.00,South,171,0.0,3.0,84,0.00,,,0.00,0.000000,,2013-07-14 10:21:00,
2013-07-14 02:32:00,44.0,39.0,-100.00,South,171,0.0,3.0,84,0.00,,,0.00,0.000000,,2013-07-14 10:32:00,
2013-07-14 02:42:00,44.0,39.0,-100.00,South,171,0.0,3.0,84,0.00,,,0.00,0.000000,,2013-07-14 10:42:00,
2013-07-14 02:53:00,44.0,39.0,-100.00,South,171,0.0,3.0,84,0.00,,,0.00,0.000000,,2013-07-14 10:53:00,
2013-07-14 03:21:00,41.0,37.0,-100.00,South,183,1.0,3.0,87,0.00,,,0.00,0.000000,,2013-07-14 11:21:00,
2013-07-14 03:32:00,41.0,37.0,-100.00,South,183,1.0,3.0,87,0.00,,,0.00,0.000000,,2013-07-14 11:32:00,
2013-07-14 03:43:00,41.0,37.0,-100.00,South,183,1.0,3.0,87,0.00,,,0.00,0.000000,,2013-07-14 11:43:00,
2013-07-14 04:32:00,38.0,36.0,-100.00,SSE,162,0.0,2.0,91,-99.99,,,0.00,0.000000,,2013-07-14 12:32:00,
2013-07-14 06:23:00,37.0,34.0,-100.00,South,178,1.0,4.0,90,-99.99,,,0.00,22.000000,,2013-07-14 14:23:00,
2013-07-14 06:33:00,37.0,34.0,-100.00,South,178,1.0,4.0,90,-99.99,,,0.00,22.000000,,2013-07-14 14:33:00,
2013-07-14 06:43:00,37.0,34.0,-100.00,South,178,1.0,4.0,90,-99.99,,,0.00,22.000000,,2013-07-14 14:43:00,
2013-07-14 07:22:00,49.0,42.0,-100.00,ESE,103,0.0,2.0,78,-99.99,,,0.00,143.000000,,2013-07-14 15:22:00,
2013-07-14 07:32:00,49.0,42.0,-100.00,ESE,103,0.0,2.0,78,-99.99,,,0.00,143.000000,,2013-07-14 15:32:00,
2013-07-14 07:42:00,49.0,42.0,-100.00,ESE,103,0.0,2.0,78,-99.99,,,0.00,143.000000,,2013-07-14 15:42:00,
2013-07-14 07:53:00,49.0,42.0,-100.00,ESE,103,0.0,2.0,78,-99.99,,,0.00,143.000000,,2013-07-14 15:53:00,
2013-07-14 08:22:00,57.0,44.0,-100.00,NE,55,1.0,3.0,62,0.00,,,0.00,307.000000,,2013-07-14 16:22:00,
2013-07-14 08:32:00,57.0,44.0,-100.00,NE,55,1.0,3.0,62,0.00,,,0.00,307.000000,,2013-07-14 16:32:00,
2013-07-14 08:43:00,57.0,44.0,-100.00,NE,55,1.0,3.0,62,0.00,,,0.00,307.000000,,2013-07-14 16:43:00,
2013-07-14 08:53:00,57.0,44.0,-100.00,NE,55,1.0,3.0,62,0.00,,,0.00,307.000000,,2013-07-14 16:53:00,
2013-07-14 09:22:00,61.0,46.0,-100.00,North,353,2.0,5.0,57,0.00,,,0.00,438.000000,,2013-07-14 17:22:00,
2013-07-14 09:32:00,61.0,46.0,-100.00,North,353,2.0,5.0,57,0.00,,,0.00,438.000000,,2013-07-14 17:32:00,
2013-07-14 09:43:00,61.0,46.0,-100.00,North,353,2.0,5.0,57,0.00,,,0.00,438.000000,,2013-07-14 17:43:00,
2013-07-14 09:53:00,61.0,46.0,-100.00,North,353,2.0,5.0,57,0.00,,,0.00,438.000000,,2013-07-14 17:53:00,
2013-07-14 10:32:00,64.0,46.0,-100.00,NNW,330,2.0,6.0,52,0.00,,,0.00,556.000000,,2013-07-14 18:32:00,
2013-07-14 10:42:00,64.0,46.0,-100.00,NNW,330,2.0,6.0,52,0.00,,,0.00,556.000000,,2013-07-14 18:42:00,
2013-07-14 10:52:00,64.0,46.0,-100.00,NNW,330,2.0,6.0,52,0.00,,,0.00,556.000000,,2013-07-14 18:52:00,
2013-07-14 11:22:00,67.0,46.0,-100.00,West,272,3.0,8.0,47,0.00,,,0.00,669.000000,,2013-07-14 19:22:00,
2013-07-14 11:32:00,67.0,46.0,-100.00,West,272,3.0,8.0,47,0.00,,,0.00,669.000000,,2013-07-14 19:32:00,
2013-07-14 11:43:00,67.0,46.0,-100.00,West,272,3.0,8.0,47,0.00,,,0.00,669.000000,,2013-07-14 19:43:00,
2013-07-14 11:52:00,67.0,46.0,-100.00,West,272,3.0,8.0,47,0.00,,,0.00,669.000000,,2013-07-14 19:52:00,
2013-07-14 12:22:00,70.0,46.0,-100.00,North,2,3.0,9.0,43,0.00,,,0.00,757.000000,,2013-07-14 20:22:00,
2013-07-14 12:32:00,70.0,46.0,-100.00,North,2,3.0,9.0,43,0.00,,,0.00,757.000000,,2013-07-14 20:32:00,
2013-07-14 12:43:00,70.0,46.0,-100.00,North,2,3.0,9.0,43,0.00,,,0.00,757.000000,,2013-07-14 20:43:00,
2013-07-14 12:53:00,70.0,46.0,-100.00,North,2,3.0,9.0,43,0.00,,,0.00,757.000000,,2013-07-14 20:53:00,
2013-07-14 13:22:00,73.0,46.0,-100.00,West,274,4.0,9.0,38,0.00,,,0.00,812.000000,,2013-07-14 21:22:00,
2013-07-14 13:32:00,73.0,46.0,-100.00,West,274,4.0,9.0,38,0.00,,,0.00,812.000000,,2013-07-14 21:32:00,
2013-07-14 13:42:00,73.0,46.0,-100.00,West,274,4.0,9.0,38,0.00,,,0.00,812.000000,,2013-07-14 21:42:00,
2013-07-14 13:52:00,73.0,46.0,-100.00,West,274,4.0,9.0,38,0.00,,,0.00,812.000000,,2013-07-14 21:52:00,
2013-07-14 14:22:00,75.0,45.0,-100.00,West,261,2.0,10.0,34,0.00,,,0.00,832.000000,,2013-07-14 22:22:00,
2013-07-14 14:32:00,75.0,45.0,-100.00,West,261,2.0,10.0,34,0.00,,,0.00,832.000000,,2013-07-14 22:32:00,
2013-07-14 14:42:00,75.0,45.0,-100.00,West,261,2.0,10.0,34,0.00,,,0.00,832.000000,,2013-07-14 22:42:00,
2013-07-14 14:53:00,75.0,45.0,-100.00,West,261,2.0,10.0,34,0.00,,,0.00,832.000000,,2013-07-14 22:53:00,
2013-07-14 15:22:00,77.0,45.0,-100.00,West,264,3.0,10.0,32,0.00,,,0.00,814.000000,,2013-07-14 23:22:00,
2013-07-14 15:32:00,77.0,45.0,-100.00,West,264,3.0,10.0,32,0.00,,,0.00,814.000000,,2013-07-14 23:32:00,
2013-07-14 15:42:00,77.0,45.0,-100.00,West,264,3.0,10.0,32,0.00,,,0.00,814.000000,,2013-07-14 23:42:00,
2013-07-14 15:53:00,77.0,45.0,-100.00,West,264,3.0,10.0,32,0.00,,,0.00,814.000000,,2013-07-14 23:53:00,
2013-07-14 16:22:00,78.0,46.0,-100.00,NW,315,3.0,9.0,32,0.00,,,0.00,759.000000,,2013-07-15 00:22:00,
2013-07-14 16:32:00,78.0,46.0,-100.00,NW,315,3.0,9.0,32,0.00,,,0.00,759.000000,,2013-07-15 00:32:00,
2013-07-14 16:43:00,78.0,46.0,-100.00,NW,315,3.0,9.0,32,0.00,,,0.00,759.000000,,2013-07-15 00:43:00,
2013-07-14 16:53:00,78.0,46.0,-100.00,NW,315,3.0,9.0,32,0.00,,,0.00,759.000000,,2013-07-15 00:53:00,
2013-07-14 17:22:00,80.0,46.0,-100.00,NW,326,3.0,8.0,30,0.00,,,0.00,676.000000,,2013-07-15 01:22:00,
2013-07-14 17:32:00,80.0,46.0,-100.00,NW,326,3.0,8.0,30,0.00,,,0.00,676.000000,,2013-07-15 01:32:00,
2013-07-14 17:43:00,80.0,46.0,-100.00,NW,326,3.0,8.0,30,0.00,,,0.00,676.000000,,2013-07-15 01:43:00,
2013-07-14 17:53:00,80.0,46.0,-100.00,NW,326,3.0,8.0,30,0.00,,,0.00,676.000000,,2013-07-15 01:53:00,
2013-07-14 18:22:00,80.0,46.0,-100.00,WNW,286,3.0,8.0,30,-99.99,,,0.00,569.000000,,2013-07-15 02:22:00,
2013-07-14 21:32:00,76.0,46.0,-100.00,WSW,244,3.0,8.0,35,-99.99,,,0.00,199.000000,,2013-07-15 05:32:00,
2013-07-14 21:43:00,76.0,46.0,-100.00,WSW,244,3.0,8.0,35,-99.99,,,0.00,199.000000,,2013-07-15 05:43:00,
2013-07-14 23:21:00,62.0,46.0,-100.00,WSW,247,1.0,5.0,56,0.00,,,0.00,10.000000,,2013-07-15 07:21:00,
2013-07-14 23:32:00,62.0,46.0,-100.00,WSW,247,1.0,5.0,56,0.00,,,0.00,10.000000,,2013-07-15 07:32:00,
2013-07-14 23:43:00,62.0,46.0,-100.00,WSW,247,1.0,5.0,56,0.00,,,0.00,10.000000,,2013-07-15 07:43:00,
2013-07-14 23:53:00,62.0,46.0,-100.00,WSW,247,1.0,5.0,56,0.00,,,0.00,10.000000,,2013-07-15 07:53:00,